createdAt,value
2019-01-08T00:02:13.046Z,0.40
2019-01-08T00:04:42.754Z,0.40
2019-01-08T00:07:12.425Z,0.40
2019-01-08T00:09:44.579Z,0.40
2019-01-08T00:12:14.587Z,0.40
2019-01-08T00:14:45.758Z,0.40
2019-01-08T00:17:16.031Z,0.40
2019-01-08T00:19:45.715Z,0.40
2019-01-08T00:22:15.454Z,0.50
2019-01-08T00:24:45.085Z,0.40
2019-01-08T00:27:16.945Z,0.50
2019-01-08T00:29:48.102Z,0.50
2019-01-08T00:32:17.857Z,0.50
2019-01-08T00:34:47.501Z,0.50
2019-01-08T00:37:17.130Z,0.50
2019-01-08T00:39:48.393Z,0.50
2019-01-08T00:42:18.006Z,0.50
2019-01-08T00:44:49.441Z,0.50
2019-01-08T00:47:21.383Z,0.50
2019-01-08T00:49:51.019Z,0.50
2019-01-08T00:52:20.658Z,0.50
2019-01-08T00:54:50.943Z,0.60
2019-01-08T00:57:20.567Z,0.60
2019-01-08T00:59:50.176Z,0.50
2019-01-08T01:02:23.203Z,0.50
2019-01-08T01:04:52.806Z,0.50
2019-01-08T01:07:22.606Z,0.50
2019-01-08T01:09:52.968Z,0.50
2019-01-08T01:12:24.004Z,0.50
2019-01-08T01:14:53.643Z,0.50
2019-01-08T01:17:24.342Z,0.50
2019-01-08T01:19:54.982Z,0.50
2019-01-08T01:22:25.478Z,0.50
2019-01-08T01:24:55.158Z,0.40
2019-01-08T01:27:25.508Z,0.40
2019-01-08T01:29:55.738Z,0.40
2019-01-08T01:32:27.765Z,0.40
2019-01-08T01:34:57.586Z,0.40
2019-01-08T01:37:27.291Z,0.50
2019-01-08T01:39:56.974Z,0.50
2019-01-08T01:42:27.676Z,0.50
2019-01-08T01:44:57.379Z,0.50
2019-01-08T01:47:27.822Z,0.50
2019-01-08T01:49:59.132Z,0.50
2019-01-08T01:52:31.514Z,0.50
2019-01-08T01:55:06.304Z,0.50
2019-01-08T01:57:37.076Z,0.50
2019-01-08T02:00:11.264Z,0.50
2019-01-08T02:02:40.916Z,0.50
2019-01-08T02:05:11.151Z,0.50
2019-01-08T02:07:40.770Z,0.50
2019-01-08T02:10:16.040Z,0.50
2019-01-08T02:12:45.758Z,0.50
2019-01-08T02:15:15.357Z,0.50
2019-01-08T02:17:46.642Z,0.50
2019-01-08T02:20:17.908Z,0.50
2019-01-08T02:22:49.972Z,0.40
2019-01-08T02:25:22.426Z,0.40
2019-01-08T02:27:54.304Z,0.40
2019-01-08T02:30:24.003Z,0.50
2019-01-08T02:32:54.276Z,0.40
2019-01-08T02:35:24.192Z,0.40
2019-01-08T02:37:53.910Z,0.40
2019-01-08T02:40:24.908Z,0.40
2019-01-08T02:42:54.628Z,0.40
2019-01-08T02:45:24.421Z,0.40
2019-01-08T02:47:55.565Z,0.30
2019-01-08T02:50:25.233Z,0.30
2019-01-08T02:52:56.440Z,0.30
2019-01-08T02:55:27.769Z,0.30
2019-01-08T02:57:57.763Z,1.00
2019-01-08T03:00:29.514Z,0.30
2019-01-08T03:02:59.214Z,0.30
2019-01-08T03:05:30.006Z,0.30
2019-01-08T03:08:00.215Z,0.30
2019-01-08T03:10:30.271Z,0.20
2019-01-08T03:12:59.948Z,0.20
2019-01-08T03:15:30.386Z,0.20
2019-01-08T03:18:01.514Z,0.20
2019-01-08T03:20:33.017Z,0.20
2019-01-08T03:23:03.779Z,0.20
2019-01-08T03:25:37.083Z,0.30
2019-01-08T03:28:07.562Z,0.20
2019-01-08T03:30:40.100Z,0.30
2019-01-08T03:33:09.881Z,0.20
2019-01-08T03:35:40.959Z,0.20
2019-01-08T03:38:15.618Z,0.20
2019-01-08T03:40:45.421Z,0.20
2019-01-08T03:43:16.360Z,0.20
2019-01-08T03:45:46.095Z,0.20
2019-01-08T03:48:15.741Z,0.20
2019-01-08T03:50:46.561Z,0.30
2019-01-08T03:53:16.923Z,0.30
2019-01-08T03:55:49.663Z,0.30
2019-01-08T03:58:19.741Z,0.30
2019-01-08T04:00:50.576Z,0.30
2019-01-08T04:03:21.549Z,0.30
2019-01-08T04:05:52.149Z,0.20
2019-01-08T04:08:24.523Z,0.20
2019-01-08T04:10:59.393Z,0.20
2019-01-08T04:13:30.639Z,0.20
2019-01-08T04:16:02.127Z,0.20
2019-01-08T04:18:36.460Z,0.20
2019-01-08T04:21:08.565Z,0.20
2019-01-08T04:23:41.703Z,0.20
2019-01-08T04:26:11.871Z,0.20
2019-01-08T04:28:44.648Z,0.20
2019-01-08T04:31:15.930Z,0.20
2019-01-08T04:33:46.597Z,0.20
2019-01-08T04:36:16.418Z,0.20
2019-01-08T04:38:46.091Z,0.20
2019-01-08T04:41:19.661Z,0.20
2019-01-08T04:43:53.564Z,0.20
2019-01-08T04:46:24.412Z,0.30
2019-01-08T04:48:57.727Z,0.30
2019-01-08T04:51:27.413Z,0.30
2019-01-08T04:53:58.643Z,0.30
2019-01-08T04:56:28.573Z,0.30
2019-01-08T04:58:58.749Z,0.30
2019-01-08T05:01:29.954Z,0.30
2019-01-08T05:04:03.787Z,0.30
2019-01-08T05:06:33.471Z,0.30
2019-01-08T05:09:08.471Z,0.40
2019-01-08T05:11:38.808Z,0.40
2019-01-08T05:14:09.463Z,0.40
2019-01-08T05:16:39.260Z,0.40
2019-01-08T05:19:08.969Z,0.40
2019-01-08T05:21:38.661Z,0.40
2019-01-08T05:24:08.351Z,0.50
2019-01-08T05:26:38.479Z,0.50
2019-01-08T05:29:08.225Z,0.50
2019-01-08T05:31:38.904Z,0.50
2019-01-08T05:34:08.492Z,0.50
2019-01-08T05:36:42.077Z,0.50
2019-01-08T05:39:13.809Z,0.60
2019-01-08T05:41:45.756Z,0.60
2019-01-08T05:44:15.658Z,0.60
2019-01-08T05:46:45.362Z,0.60
2019-01-08T05:49:15.046Z,0.60
2019-01-08T05:51:46.332Z,0.70
2019-01-08T05:54:16.100Z,0.70
2019-01-08T05:56:46.916Z,0.70
2019-01-08T05:59:17.883Z,0.70
2019-01-08T06:01:48.651Z,0.70
2019-01-08T06:04:19.576Z,0.70
2019-01-08T06:06:50.579Z,0.70
2019-01-08T06:09:22.188Z,0.70
2019-01-08T06:11:51.878Z,0.70
2019-01-08T06:14:21.554Z,0.70
2019-01-08T06:16:52.802Z,0.80
2019-01-08T06:19:23.984Z,0.80
2019-01-08T06:21:58.681Z,0.80
2019-01-08T06:24:29.260Z,0.80
2019-01-08T06:27:00.126Z,0.80
2019-01-08T06:29:29.739Z,0.80
2019-01-08T06:32:00.718Z,0.90
2019-01-08T06:34:31.950Z,0.90
2019-01-08T06:37:01.666Z,0.90
2019-01-08T06:39:34.360Z,0.90
2019-01-08T06:42:06.432Z,1.00
2019-01-08T06:44:37.811Z,1.00
2019-01-08T06:47:10.310Z,1.00
2019-01-08T06:49:40.639Z,1.00
2019-01-08T06:52:10.415Z,1.00
2019-01-08T06:54:40.037Z,1.00
2019-01-08T06:57:09.658Z,1.00
2019-01-08T06:59:39.340Z,1.00
2019-01-08T07:02:08.950Z,1.00
2019-01-08T07:04:40.194Z,1.00
2019-01-08T07:07:09.897Z,1.10
2019-01-08T07:09:39.504Z,1.10
2019-01-08T07:12:09.218Z,1.00
2019-01-08T07:14:38.851Z,1.10
2019-01-08T07:17:08.469Z,1.10
2019-01-08T07:19:40.978Z,1.10
2019-01-08T07:22:15.389Z,1.10
2019-01-08T07:24:47.186Z,1.10
2019-01-08T07:27:18.458Z,1.10
2019-01-08T07:29:49.268Z,1.10
2019-01-08T07:32:18.904Z,1.10
2019-01-08T07:34:48.558Z,1.10
2019-01-08T07:37:18.314Z,1.10
2019-01-08T07:39:51.142Z,1.10
2019-01-08T07:42:20.805Z,1.10
2019-01-08T07:44:51.127Z,1.10
2019-01-08T07:47:22.529Z,1.10
2019-01-08T07:49:52.134Z,1.10
2019-01-08T07:52:21.962Z,1.10
2019-01-08T07:54:51.674Z,1.20
2019-01-08T07:57:21.572Z,1.20
2019-01-08T07:59:52.839Z,1.20
2019-01-08T08:02:22.546Z,1.20
2019-01-08T08:04:52.681Z,1.20
2019-01-08T08:07:22.329Z,1.20
2019-01-08T08:09:51.928Z,1.20
2019-01-08T08:12:22.886Z,1.20
2019-01-08T08:14:52.502Z,1.30
2019-01-08T08:17:22.234Z,1.30
2019-01-08T08:19:53.197Z,1.20
2019-01-08T08:22:24.067Z,1.30
2019-01-08T08:24:57.196Z,1.30
2019-01-08T08:27:26.846Z,1.20
2019-01-08T08:29:56.559Z,1.20
2019-01-08T08:32:26.235Z,1.20
2019-01-08T08:34:57.156Z,1.20
2019-01-08T08:37:26.782Z,1.10
2019-01-08T08:40:00.286Z,1.10
2019-01-08T08:42:31.367Z,1.10
2019-01-08T08:45:01.455Z,1.10
2019-01-08T08:47:31.109Z,1.10
2019-01-08T08:50:01.931Z,1.10
2019-01-08T08:52:34.698Z,1.20
2019-01-08T08:55:04.867Z,1.20
2019-01-08T08:57:37.199Z,1.20
2019-01-08T09:00:08.279Z,1.20
2019-01-08T09:02:40.116Z,1.20
2019-01-08T09:05:14.321Z,1.20
2019-01-08T09:07:48.751Z,1.20
2019-01-08T09:10:18.896Z,1.30
2019-01-08T09:12:51.254Z,1.30
2019-01-08T09:15:22.079Z,1.30
2019-01-08T09:18:10.108Z,1.30
2019-01-08T09:20:29.403Z,1.30
2019-01-08T09:23:01.302Z,1.40
2019-01-08T09:25:31.032Z,1.40
2019-01-08T09:28:05.206Z,1.40
2019-01-08T09:30:35.900Z,1.40
2019-01-08T09:33:06.009Z,1.40
2019-01-08T09:35:35.690Z,1.40
2019-01-08T09:38:08.489Z,1.40
2019-01-08T09:40:39.507Z,1.40
2019-01-08T09:43:09.682Z,1.50
2019-01-08T09:45:41.395Z,1.50
2019-01-08T09:48:13.904Z,1.50
2019-01-08T09:50:43.573Z,1.50
2019-01-08T09:53:14.103Z,1.50
2019-01-08T09:55:45.071Z,1.60
2019-01-08T09:58:16.011Z,1.50
2019-01-08T10:00:47.016Z,1.60
2019-01-08T10:03:18.007Z,1.60
2019-01-08T10:05:47.653Z,1.60
2019-01-08T10:08:21.738Z,1.60
2019-01-08T10:10:56.255Z,1.60
2019-01-08T10:13:28.547Z,1.70
2019-01-08T10:15:59.699Z,1.70
2019-01-08T10:18:29.599Z,1.70
2019-01-08T10:20:59.261Z,1.70
2019-01-08T10:23:30.509Z,1.70
2019-01-08T10:26:00.188Z,1.80
2019-01-08T10:28:31.604Z,1.80
2019-01-08T10:31:03.468Z,1.80
2019-01-08T10:33:33.256Z,1.80
2019-01-08T10:36:02.885Z,1.90
2019-01-08T10:38:32.674Z,1.90
2019-01-08T10:41:03.418Z,1.30
2019-01-08T10:43:33.163Z,2.00
2019-01-08T10:46:03.010Z,2.10
2019-01-08T10:48:34.168Z,2.10
2019-01-08T10:51:03.967Z,2.20
2019-01-08T10:53:36.612Z,2.20
2019-01-08T10:56:06.661Z,2.20
2019-01-08T10:58:38.908Z,2.30
2019-01-08T11:01:10.181Z,2.30
2019-01-08T11:03:39.781Z,2.30
2019-01-08T11:06:09.990Z,2.30
2019-01-08T11:08:39.708Z,2.30
2019-01-08T11:11:09.370Z,2.30
2019-01-08T11:13:39.005Z,2.30
2019-01-08T11:16:08.726Z,2.30
2019-01-08T11:18:38.680Z,2.20
2019-01-08T11:21:09.636Z,2.30
2019-01-08T11:23:40.926Z,2.30
2019-01-08T11:26:12.911Z,2.30
2019-01-08T11:28:44.240Z,2.30
2019-01-08T11:31:15.520Z,2.30
2019-01-08T11:33:45.192Z,2.30
2019-01-08T11:36:14.842Z,2.30
2019-01-08T11:38:44.585Z,2.30
2019-01-08T11:41:14.202Z,2.30
2019-01-08T11:43:43.923Z,2.30
2019-01-08T11:46:15.059Z,2.40
2019-01-08T11:48:44.766Z,2.40
2019-01-08T11:51:15.960Z,2.40
2019-01-08T11:53:45.615Z,2.40
2019-01-08T11:56:15.353Z,2.40
2019-01-08T11:58:45.010Z,2.50
2019-01-08T12:01:15.704Z,2.50
2019-01-08T12:03:45.382Z,2.50
2019-01-08T12:06:16.299Z,2.60
2019-01-08T12:08:46.946Z,2.60
2019-01-08T12:11:16.632Z,2.60
2019-01-08T12:13:46.238Z,2.60
2019-01-08T12:16:15.995Z,2.70
2019-01-08T12:18:46.977Z,2.70
2019-01-08T12:21:16.822Z,2.70
2019-01-08T12:23:49.216Z,2.80
2019-01-08T12:26:22.896Z,2.80
2019-01-08T12:28:52.602Z,2.80
2019-01-08T12:31:22.486Z,2.80
2019-01-08T12:33:52.117Z,2.80
2019-01-08T12:36:21.833Z,2.90
2019-01-08T12:38:52.544Z,2.90
2019-01-08T12:41:22.567Z,2.90
2019-01-08T12:43:52.249Z,2.80
2019-01-08T12:46:21.927Z,2.80
2019-01-08T12:48:51.556Z,2.80
2019-01-08T12:51:22.480Z,2.80
2019-01-08T12:53:53.672Z,2.80
2019-01-08T12:56:23.427Z,2.80
2019-01-08T12:58:53.056Z,2.80
2019-01-08T13:01:22.735Z,2.80
2019-01-08T13:03:53.354Z,2.80
2019-01-08T13:06:24.021Z,2.80
2019-01-08T13:08:53.712Z,2.80
2019-01-08T13:11:23.345Z,2.80
2019-01-08T13:13:52.973Z,2.80
2019-01-08T13:16:24.473Z,2.70
2019-01-08T13:18:54.158Z,2.70
2019-01-08T13:21:25.401Z,2.70
2019-01-08T13:23:56.307Z,2.70
2019-01-08T13:26:29.897Z,2.70
2019-01-08T13:28:59.855Z,2.70
2019-01-08T13:31:29.568Z,2.70
2019-01-08T13:33:59.812Z,2.60
2019-01-08T13:36:30.323Z,2.60
2019-01-08T13:39:02.639Z,2.60
2019-01-08T13:41:33.398Z,2.60
2019-01-08T13:44:03.661Z,2.60
2019-01-08T13:46:35.660Z,2.60
2019-01-08T13:49:06.695Z,2.60
2019-01-08T13:51:37.374Z,2.60
2019-01-08T13:54:06.983Z,2.50
2019-01-08T13:56:38.053Z,2.50
2019-01-08T13:59:07.677Z,2.50
2019-01-08T14:01:42.589Z,2.50
2019-01-08T14:04:15.570Z,2.50
2019-01-08T14:06:47.373Z,2.40
2019-01-08T14:09:18.398Z,2.40
2019-01-08T14:11:49.655Z,2.40
2019-01-08T14:14:26.192Z,2.40
2019-01-08T14:16:59.017Z,2.40
2019-01-08T14:19:32.431Z,2.40
2019-01-08T14:22:04.958Z,2.40
2019-01-08T14:24:34.647Z,2.40
2019-01-08T14:27:11.717Z,2.40
2019-01-08T14:29:35.656Z,2.30
2019-01-08T14:32:05.389Z,2.30
2019-01-08T14:34:35.042Z,2.30
2019-01-08T14:37:08.587Z,2.30
2019-01-08T14:39:40.509Z,2.30
2019-01-08T14:42:11.407Z,2.30
2019-01-08T14:44:43.715Z,2.30
2019-01-08T14:47:20.448Z,2.20
2019-01-08T14:49:50.868Z,2.30
2019-01-08T14:52:23.752Z,2.20
2019-01-08T14:54:53.430Z,2.20
2019-01-08T14:57:24.760Z,2.20
2019-01-08T14:59:54.486Z,2.20
2019-01-08T15:02:24.142Z,2.20
2019-01-08T15:04:53.858Z,2.20
2019-01-08T15:07:23.493Z,2.20
2019-01-08T15:09:54.758Z,2.20
2019-01-08T15:12:24.380Z,2.20
2019-01-08T15:14:54.028Z,2.20
2019-01-08T15:17:23.692Z,2.20
2019-01-08T15:19:56.414Z,2.20
2019-01-08T15:22:28.705Z,2.30
2019-01-08T15:24:58.488Z,2.30
2019-01-08T15:27:30.367Z,2.30
2019-01-08T15:30:00.224Z,2.20
2019-01-08T15:32:32.082Z,2.20
2019-01-08T15:35:02.046Z,2.20
2019-01-08T15:37:32.276Z,2.20
2019-01-08T15:40:02.086Z,2.10
2019-01-08T15:42:32.395Z,2.70
2019-01-08T15:45:04.786Z,2.00
2019-01-08T15:47:35.579Z,2.00
2019-01-08T15:50:07.114Z,2.00
2019-01-08T15:52:37.755Z,2.00
2019-01-08T15:55:07.417Z,2.00
2019-01-08T15:57:37.075Z,1.90
2019-01-08T16:00:09.853Z,1.90
2019-01-08T16:02:39.545Z,1.90
2019-01-08T16:05:09.198Z,1.90
2019-01-08T16:07:39.246Z,1.90
2019-01-08T16:10:08.902Z,1.90
2019-01-08T16:12:47.822Z,1.90
2019-01-08T16:15:17.157Z,1.80
2019-01-08T16:17:46.800Z,1.80
2019-01-08T16:20:16.438Z,1.80
2019-01-08T16:22:47.158Z,1.80
2019-01-08T16:25:16.786Z,1.80
2019-01-08T16:27:48.000Z,1.80
2019-01-08T16:30:22.108Z,1.80
2019-01-08T16:32:48.906Z,1.80
2019-01-08T16:35:18.583Z,1.80
2019-01-08T16:37:53.013Z,1.80
2019-01-08T16:40:22.659Z,1.80
2019-01-08T16:42:53.845Z,1.70
2019-01-08T16:45:23.567Z,1.70
2019-01-08T16:47:53.151Z,1.70
2019-01-08T16:50:22.826Z,1.70
2019-01-08T16:52:52.453Z,1.70
2019-01-08T16:55:22.125Z,1.70
2019-01-08T16:57:51.826Z,1.70
2019-01-08T17:00:21.525Z,1.70
2019-01-08T17:02:52.227Z,1.70
2019-01-08T17:05:22.059Z,1.70
2019-01-08T17:07:53.250Z,1.70
2019-01-08T17:10:22.946Z,1.70
2019-01-08T17:12:52.640Z,1.70
2019-01-08T17:15:22.255Z,1.70
2019-01-08T17:17:51.925Z,1.70
2019-01-08T17:20:21.598Z,1.70
2019-01-08T17:22:52.821Z,1.70
2019-01-08T17:25:22.454Z,1.70
2019-01-08T17:27:53.428Z,1.70
2019-01-08T17:30:23.077Z,1.70
2019-01-08T17:32:53.225Z,1.70
2019-01-08T17:35:22.839Z,1.70
2019-01-08T17:37:52.595Z,1.60
2019-01-08T17:40:25.187Z,1.60
2019-01-08T17:42:54.891Z,1.60
2019-01-08T17:45:24.591Z,1.60
2019-01-08T17:47:55.685Z,1.60
2019-01-08T17:50:25.412Z,1.60
2019-01-08T17:52:55.070Z,1.60
2019-01-08T17:55:25.751Z,1.60
2019-01-08T17:58:28.704Z,1.60
2019-01-08T18:00:58.392Z,1.60
2019-01-08T18:03:29.505Z,1.60
2019-01-08T18:05:59.253Z,1.60
2019-01-08T18:08:30.438Z,1.60
2019-01-08T18:11:01.850Z,1.60
2019-01-08T18:13:33.098Z,1.60
2019-01-08T18:16:04.377Z,1.60
2019-01-08T18:18:34.050Z,1.60
2019-01-08T18:21:04.873Z,1.60
2019-01-08T18:23:35.710Z,1.60
2019-01-08T18:26:06.705Z,1.70
2019-01-08T18:28:36.394Z,1.70
2019-01-08T18:31:10.431Z,1.70
2019-01-08T18:33:40.850Z,1.70
2019-01-08T18:36:14.356Z,1.70
2019-01-08T18:38:46.065Z,1.70
2019-01-08T18:41:15.711Z,1.70
2019-01-08T18:43:45.408Z,1.70
2019-01-08T18:46:17.068Z,1.70
2019-01-08T18:48:48.266Z,1.70
2019-01-08T18:51:19.559Z,1.70
2019-01-08T18:53:52.248Z,1.70
2019-01-08T18:56:23.723Z,1.70
2019-01-08T18:58:54.859Z,1.70
2019-01-08T19:01:24.497Z,1.70
2019-01-08T19:03:59.955Z,1.70
2019-01-08T19:06:28.675Z,1.70
2019-01-08T19:09:21.374Z,1.70
2019-01-08T19:11:51.614Z,1.70
2019-01-08T19:14:25.023Z,1.70
2019-01-08T19:16:58.848Z,1.70
2019-01-08T19:19:35.620Z,1.70
2019-01-08T19:22:07.592Z,1.70
2019-01-08T19:24:37.261Z,1.70
2019-01-08T19:27:06.886Z,1.70
2019-01-08T19:29:43.029Z,1.70
2019-01-08T19:32:13.412Z,1.70
2019-01-08T19:34:44.858Z,1.70
2019-01-08T19:37:15.965Z,1.70
2019-01-08T19:39:48.366Z,1.70
2019-01-08T19:42:19.180Z,1.60
2019-01-08T19:44:57.672Z,1.60
2019-01-08T19:47:28.442Z,1.70
2019-01-08T19:50:02.475Z,1.60
2019-01-08T19:52:36.665Z,1.60
2019-01-08T19:55:08.015Z,1.60
2019-01-08T19:57:45.202Z,1.60
2019-01-08T20:00:16.285Z,1.60
2019-01-08T20:02:51.900Z,1.60
2019-01-08T20:05:22.998Z,1.60
2019-01-08T20:07:57.348Z,1.60
2019-01-08T20:10:28.714Z,1.60
2019-01-08T20:13:00.319Z,1.60
2019-01-08T20:15:30.174Z,1.60
2019-01-08T20:18:10.414Z,1.60
2019-01-08T20:20:43.086Z,1.60
2019-01-08T20:23:14.394Z,1.60
2019-01-08T20:25:49.595Z,1.60
2019-01-08T20:28:22.107Z,1.60
2019-01-08T20:31:00.585Z,1.60
2019-01-08T20:33:31.216Z,1.60
2019-01-08T20:36:00.953Z,1.60
2019-01-08T20:38:31.619Z,1.60
2019-01-08T20:41:01.840Z,1.60
2019-01-08T20:43:32.168Z,1.60
2019-01-08T20:46:02.446Z,1.60
2019-01-08T20:48:33.676Z,1.60
2019-01-08T20:51:05.693Z,1.60
2019-01-08T20:53:35.340Z,1.60
2019-01-08T20:56:06.775Z,1.60
2019-01-08T20:58:37.396Z,1.60
2019-01-08T21:01:07.158Z,1.60
2019-01-08T21:03:41.200Z,1.60
2019-01-08T21:06:13.795Z,1.50
2019-01-08T21:08:43.445Z,1.50
2019-01-08T21:11:13.202Z,1.60
2019-01-08T21:13:42.854Z,1.50
2019-01-08T21:16:13.208Z,1.50
2019-01-08T21:18:44.154Z,1.50
2019-01-08T21:21:13.846Z,1.50
2019-01-08T21:23:46.358Z,1.50
2019-01-08T21:26:18.699Z,1.50
2019-01-08T21:28:48.370Z,1.60
2019-01-08T21:31:18.062Z,1.50
2019-01-08T21:33:49.322Z,1.50
2019-01-08T21:36:19.247Z,1.60
2019-01-08T21:38:48.931Z,1.50
2019-01-08T21:41:21.198Z,1.50
2019-01-08T21:43:53.274Z,1.50
2019-01-08T21:46:23.062Z,1.50
2019-01-08T21:48:53.917Z,1.50
2019-01-08T21:51:27.398Z,1.50
2019-01-08T21:53:59.229Z,1.50
2019-01-08T21:56:28.938Z,1.50
2019-01-08T21:59:01.955Z,1.50
2019-01-08T22:01:31.631Z,1.50
2019-01-08T22:04:01.862Z,1.40
2019-01-08T22:06:32.698Z,1.50
2019-01-08T22:09:04.915Z,1.50
2019-01-08T22:11:36.938Z,1.50
2019-01-08T22:14:08.807Z,1.50
2019-01-08T22:16:38.539Z,1.50
2019-01-08T22:19:08.174Z,1.50
2019-01-08T22:21:38.801Z,1.50
2019-01-08T22:24:08.445Z,1.50
2019-01-08T22:26:38.062Z,1.50
2019-01-08T22:29:12.235Z,1.50
2019-01-08T22:31:42.168Z,1.50
2019-01-08T22:34:12.007Z,1.50
2019-01-08T22:36:41.703Z,1.50
2019-01-08T22:39:12.983Z,1.50
2019-01-08T22:41:44.253Z,1.50
2019-01-08T22:44:15.579Z,1.50
2019-01-08T22:46:47.278Z,1.50
2019-01-08T22:49:17.507Z,1.50
2019-01-08T22:51:49.355Z,1.50
2019-01-08T22:54:20.218Z,1.50
2019-01-08T22:56:52.585Z,1.50
2019-01-08T22:59:22.215Z,1.50
2019-01-08T23:01:53.266Z,1.50
2019-01-08T23:04:25.491Z,1.50
2019-01-08T23:06:55.595Z,1.50
2019-01-08T23:09:26.973Z,1.50
2019-01-08T23:11:58.269Z,1.50
2019-01-08T23:14:29.668Z,1.50
2019-01-08T23:17:01.093Z,1.50
2019-01-08T23:19:32.325Z,1.50
2019-01-08T23:22:07.783Z,1.50
2019-01-08T23:24:37.171Z,1.50
2019-01-08T23:27:08.497Z,1.50
2019-01-08T23:29:37.856Z,1.50
2019-01-08T23:32:09.081Z,1.50
2019-01-08T23:34:39.401Z,1.50
2019-01-08T23:37:10.035Z,1.40
2019-01-08T23:39:39.988Z,1.40
2019-01-08T23:42:10.947Z,1.40
2019-01-08T23:44:42.807Z,1.40
2019-01-08T23:47:15.363Z,1.40
2019-01-08T23:49:48.383Z,1.30
2019-01-08T23:52:25.027Z,1.30
2019-01-08T23:54:58.795Z,1.30
2019-01-08T23:57:30.531Z,1.30
